createdAt,value
2022-10-31T00:00:50.865Z,99577.72
2022-10-31T00:03:19.532Z,99576.59
2022-10-31T00:05:49.735Z,99582.03
2022-10-31T00:08:18.611Z,99574.72
2022-10-31T00:10:48.159Z,99572.91
2022-10-31T00:13:16.988Z,99581.91
2022-10-31T00:15:44.910Z,99579.78
2022-10-31T00:18:13.085Z,99585.16
2022-10-31T00:20:41.230Z,99588.41
2022-10-31T00:23:10.967Z,99584.78
2022-10-31T00:25:40.282Z,99586.63
2022-10-31T00:28:13.117Z,99583.19
2022-10-31T00:30:41.118Z,99580.66
2022-10-31T00:33:08.986Z,99581.34
2022-10-31T00:35:38.599Z,99585.78
2022-10-31T00:38:06.521Z,99586.22
2022-10-31T00:40:34.493Z,99591.31
2022-10-31T00:43:02.932Z,99590.47
2022-10-31T00:45:32.551Z,99589.56
2022-10-31T00:48:00.561Z,99593.13
2022-10-31T00:50:28.726Z,99587.13
2022-10-31T00:52:56.526Z,99596.34
2022-10-31T00:55:24.405Z,99597.94
2022-10-31T00:57:52.820Z,99598.25
2022-10-31T01:00:21.155Z,99595.16
2022-10-31T01:02:50.950Z,99595.16
2022-10-31T01:05:18.902Z,99599.09
2022-10-31T01:07:47.495Z,99599.91
2022-10-31T01:10:15.723Z,99590.97
2022-10-31T01:12:46.893Z,99592.19
2022-10-31T01:15:17.510Z,99582.56
2022-10-31T01:17:45.392Z,99598.03
2022-10-31T01:20:15.980Z,99588.28
2022-10-31T01:22:43.681Z,99583.38
2022-10-31T01:25:12.476Z,99584.66
2022-10-31T01:27:40.410Z,99595.16
2022-10-31T01:30:10.572Z,99578.56
2022-10-31T01:32:38.503Z,99577.28
2022-10-31T01:35:06.653Z,99589.38
2022-10-31T01:37:36.098Z,99583.06
2022-10-31T01:40:04.446Z,99579.50
2022-10-31T01:42:32.276Z,99578.81
2022-10-31T01:45:02.652Z,99577.72
2022-10-31T01:47:39.765Z,99574.31
2022-10-31T01:50:15.665Z,99574.94
2022-10-31T01:52:48.655Z,99578.34
2022-10-31T01:55:25.150Z,99572.19
2022-10-31T01:57:59.216Z,99569.78
2022-10-31T02:00:27.569Z,99556.66
2022-10-31T02:02:57.008Z,99550.09
2022-10-31T02:05:27.589Z,99553.28
2022-10-31T02:08:01.767Z,99557.41
2022-10-31T02:10:32.691Z,99553.22
2022-10-31T02:13:03.888Z,99556.38
2022-10-31T02:15:33.888Z,99560.56
2022-10-31T02:18:02.523Z,99550.78
2022-10-31T02:20:35.029Z,99553.22
2022-10-31T02:23:32.499Z,99560.56
2022-10-31T02:26:22.613Z,99563.19
2022-10-31T02:29:22.121Z,99561.94
2022-10-31T02:32:01.323Z,99562.56
2022-10-31T02:34:38.280Z,99569.03
2022-10-31T02:37:11.772Z,99570.22
2022-10-31T02:39:46.803Z,99571.75
2022-10-31T02:42:30.339Z,99567.69
2022-10-31T02:45:03.949Z,99576.59
2022-10-31T02:47:38.644Z,99566.88
2022-10-31T02:50:11.054Z,99572.38
2022-10-31T02:52:40.635Z,99573.47
2022-10-31T02:55:13.557Z,99574.78
2022-10-31T02:57:43.804Z,99575.41
2022-10-31T03:00:12.687Z,99565.34
2022-10-31T03:03:04.766Z,99560.78
2022-10-31T03:05:45.465Z,99566.31
2022-10-31T03:08:23.570Z,99564.72
2022-10-31T03:10:57.057Z,99568.31
2022-10-31T03:13:36.809Z,99572.44
2022-10-31T03:16:12.530Z,99557.16
2022-10-31T03:18:44.807Z,99560.63
2022-10-31T03:21:16.763Z,99560.47
2022-10-31T03:23:47.019Z,99566.19
2022-10-31T03:26:23.035Z,99569.66
2022-10-31T03:28:55.123Z,99570.66
2022-10-31T03:31:28.747Z,99575.16
2022-10-31T03:34:00.570Z,99580.09
2022-10-31T03:36:32.442Z,99578.13
2022-10-31T03:39:02.206Z,99581.91
2022-10-31T03:41:33.408Z,99582.44
2022-10-31T03:44:05.904Z,99580.00
2022-10-31T03:46:35.506Z,99594.88
2022-10-31T03:49:06.246Z,99591.81
2022-10-31T03:51:42.443Z,99593.03
2022-10-31T03:54:17.842Z,99599.75
2022-10-31T03:56:52.720Z,99591.19
2022-10-31T03:59:28.275Z,99584.63
2022-10-31T04:02:02.309Z,99589.22
2022-10-31T04:04:32.575Z,99585.06
2022-10-31T04:07:03.608Z,99587.31
2022-10-31T04:09:34.141Z,99588.94
2022-10-31T04:12:06.409Z,99588.69
2022-10-31T04:14:55.002Z,99593.69
2022-10-31T04:17:25.850Z,99590.53
2022-10-31T04:19:55.152Z,99594.06
2022-10-31T04:22:23.270Z,99596.91
2022-10-31T04:24:51.150Z,99594.66
2022-10-31T04:27:19.821Z,99606.69
2022-10-31T04:29:50.735Z,99601.78
2022-10-31T04:32:19.905Z,99598.09
2022-10-31T04:34:47.868Z,99596.91
2022-10-31T04:37:17.183Z,99598.09
2022-10-31T04:39:45.160Z,99601.16
2022-10-31T04:42:31.973Z,99591.28
2022-10-31T04:45:02.347Z,99599.34
2022-10-31T04:47:33.976Z,99598.56
2022-10-31T04:50:02.827Z,99599.41
2022-10-31T04:52:32.069Z,99599.75
2022-10-31T04:55:00.006Z,99589.34
2022-10-31T04:57:51.054Z,99593.63
2022-10-31T05:00:22.486Z,99584.88
2022-10-31T05:02:54.362Z,99585.56
2022-10-31T05:05:23.108Z,99589.22
2022-10-31T05:07:52.944Z,99587.03
2022-10-31T05:10:25.708Z,99582.00
2022-10-31T05:12:54.886Z,99576.97
2022-10-31T05:15:41.458Z,99574.06
2022-10-31T05:18:27.984Z,99587.50
2022-10-31T05:21:17.589Z,99566.97
2022-10-31T05:23:56.339Z,99568.66
2022-10-31T05:26:25.830Z,99565.44
2022-10-31T05:28:55.429Z,99557.47
2022-10-31T05:31:24.893Z,99561.00
2022-10-31T05:33:54.588Z,99550.81
2022-10-31T05:36:41.065Z,99556.69
2022-10-31T05:39:20.672Z,99546.91
2022-10-31T05:41:51.482Z,99550.72
2022-10-31T05:44:28.084Z,99547.38
2022-10-31T05:47:07.790Z,99546.84
2022-10-31T05:49:54.353Z,99547.28
2022-10-31T05:52:41.031Z,99558.09
2022-10-31T05:55:20.766Z,99555.31
2022-10-31T05:58:04.399Z,99554.88
2022-10-31T06:00:35.302Z,99567.56
2022-10-31T06:05:50.630Z,99559.66
2022-10-31T06:08:22.324Z,99561.50
2022-10-31T06:10:54.071Z,99556.13
2022-10-31T06:13:30.974Z,99558.41
2022-10-31T06:16:11.396Z,99549.59
2022-10-31T06:18:40.906Z,99560.38
2022-10-31T06:21:11.496Z,99557.91
2022-10-31T06:23:41.471Z,99559.97
2022-10-31T06:26:45.963Z,99567.34
2022-10-31T06:29:14.540Z,99569.66
2022-10-31T06:32:05.102Z,99565.19
2022-10-31T06:34:38.469Z,99573.75
2022-10-31T06:37:07.455Z,99568.53
2022-10-31T06:39:35.860Z,99571.84
2022-10-31T06:42:05.149Z,99575.59
2022-10-31T06:44:33.846Z,99575.34
2022-10-31T06:47:01.530Z,99567.09
2022-10-31T06:49:46.529Z,99569.59
2022-10-31T06:52:17.367Z,99566.59
2022-10-31T06:54:45.212Z,99573.91
2022-10-31T06:57:17.221Z,99585.34
2022-10-31T06:59:45.260Z,99589.53
2022-10-31T07:02:31.378Z,99587.91
2022-10-31T07:04:59.215Z,99583.16
2022-10-31T07:07:26.943Z,99585.88
2022-10-31T07:09:55.064Z,99587.31
2022-10-31T07:12:38.787Z,99594.28
2022-10-31T07:15:07.025Z,99591.22
2022-10-31T07:17:34.726Z,99583.59
2022-10-31T07:20:02.679Z,99589.22
2022-10-31T07:22:34.349Z,99582.50
2022-10-31T07:25:02.084Z,99590.03
2022-10-31T07:27:53.942Z,99588.00
2022-10-31T07:30:21.826Z,99579.69
2022-10-31T07:32:52.497Z,99573.63
2022-10-31T07:35:21.625Z,99577.13
2022-10-31T07:37:56.575Z,99570.84
2022-10-31T07:40:25.251Z,99569.56
2022-10-31T07:42:55.124Z,99572.53
2022-10-31T07:45:53.061Z,99572.19
2022-10-31T07:48:39.406Z,99574.81
2022-10-31T07:51:25.527Z,99573.09
2022-10-31T07:54:13.272Z,99573.16
2022-10-31T07:56:41.024Z,99570.41
2022-10-31T07:59:10.396Z,99571.28
2022-10-31T08:01:38.111Z,99568.06
2022-10-31T08:04:25.740Z,99568.53
2022-10-31T08:07:25.843Z,99573.91
2022-10-31T08:09:59.866Z,99559.59
2022-10-31T08:12:31.426Z,99567.84
2022-10-31T08:15:00.966Z,99575.16
2022-10-31T08:17:30.612Z,99565.25
2022-10-31T08:20:00.894Z,99565.38
2022-10-31T08:22:42.845Z,99571.03
2022-10-31T08:25:12.228Z,99568.22
2022-10-31T08:27:40.510Z,99564.13
2022-10-31T08:30:15.269Z,99566.53
2022-10-31T08:32:59.142Z,99563.06
2022-10-31T08:35:45.381Z,99567.09
2022-10-31T08:38:35.862Z,99573.63
2022-10-31T08:41:03.725Z,99568.78
2022-10-31T08:43:31.437Z,99567.97
2022-10-31T08:46:00.579Z,99564.91
2022-10-31T08:48:30.343Z,99564.44
2022-10-31T08:50:59.011Z,99551.50
2022-10-31T08:53:27.747Z,99554.34
2022-10-31T08:56:12.088Z,99551.72
2022-10-31T08:58:40.527Z,99560.84
2022-10-31T09:01:11.819Z,99554.56
2022-10-31T09:03:39.630Z,99552.34
2022-10-31T09:06:09.828Z,99552.66
2022-10-31T09:08:38.807Z,99556.91
2022-10-31T09:11:08.261Z,99560.84
2022-10-31T09:13:54.763Z,99553.06
2022-10-31T09:16:42.016Z,99550.53
2022-10-31T09:19:16.584Z,99553.81
2022-10-31T09:21:47.458Z,99552.44
2022-10-31T09:24:15.353Z,99558.66
2022-10-31T09:26:44.292Z,99549.78
2022-10-31T09:29:18.561Z,99554.22
2022-10-31T09:31:51.501Z,99562.69
2022-10-31T09:34:30.300Z,99551.00
2022-10-31T09:37:09.771Z,99557.47
2022-10-31T09:39:37.545Z,99554.19
2022-10-31T09:42:34.219Z,99557.47
2022-10-31T09:45:08.550Z,99545.81
2022-10-31T09:47:46.578Z,99540.06
2022-10-31T09:50:53.301Z,99538.28
2022-10-31T09:53:51.704Z,99543.25
2022-10-31T09:56:24.097Z,99533.63
2022-10-31T09:58:56.440Z,99538.03
2022-10-31T10:01:31.194Z,99530.00
2022-10-31T10:04:04.064Z,99532.50
2022-10-31T10:06:57.523Z,99529.41
2022-10-31T10:09:48.547Z,99531.91
2022-10-31T10:12:30.922Z,99523.84
2022-10-31T10:15:05.009Z,99534.38
2022-10-31T10:17:38.525Z,99534.72
2022-10-31T10:20:31.556Z,99526.13
2022-10-31T10:23:04.376Z,99528.94
2022-10-31T10:25:35.020Z,99523.19
2022-10-31T10:28:10.694Z,99523.84
2022-10-31T10:30:42.218Z,99528.81
2022-10-31T10:33:12.763Z,99527.19
2022-10-31T10:35:44.695Z,99525.72
2022-10-31T10:38:17.478Z,99521.44
2022-10-31T10:40:45.425Z,99526.88
2022-10-31T10:43:21.341Z,99522.81
2022-10-31T10:46:11.789Z,99532.75
2022-10-31T10:48:43.950Z,99521.88
2022-10-31T10:51:31.957Z,99519.09
2022-10-31T10:54:15.884Z,99518.56
2022-10-31T10:56:51.312Z,99505.84
2022-10-31T10:59:21.603Z,99499.28
2022-10-31T11:01:50.751Z,99502.19
2022-10-31T11:04:29.978Z,99505.00
2022-10-31T11:07:03.169Z,99489.63
2022-10-31T11:09:31.007Z,99499.91
2022-10-31T11:11:59.718Z,99496.22
2022-10-31T11:14:28.580Z,99493.72
2022-10-31T11:17:10.485Z,99485.03
2022-10-31T11:19:38.504Z,99486.44
2022-10-31T11:22:16.773Z,99487.28
2022-10-31T11:24:44.472Z,99478.00
2022-10-31T11:27:15.714Z,99477.91
2022-10-31T11:29:43.515Z,99475.53
2022-10-31T11:32:19.076Z,99469.78
2022-10-31T11:34:47.932Z,99473.69
2022-10-31T11:37:34.683Z,99469.31
2022-10-31T11:40:12.665Z,99468.16
2022-10-31T11:42:41.764Z,99471.06
2022-10-31T11:45:16.157Z,99463.34
2022-10-31T11:47:46.207Z,99463.16
2022-10-31T11:50:20.411Z,99459.66
2022-10-31T11:52:49.715Z,99453.59
2022-10-31T11:55:19.793Z,99454.66
2022-10-31T11:57:48.484Z,99453.13
2022-10-31T12:00:23.283Z,99443.53
2022-10-31T12:02:51.069Z,99444.19
2022-10-31T12:05:21.045Z,99435.16
2022-10-31T12:07:50.964Z,99438.56
2022-10-31T12:10:21.385Z,99419.19
2022-10-31T12:12:58.998Z,99422.34
2022-10-31T12:15:31.498Z,99421.13
2022-10-31T12:18:04.567Z,99415.31
2022-10-31T12:20:40.823Z,99416.09
2022-10-31T12:23:17.230Z,99415.19
2022-10-31T12:25:48.269Z,99413.16
2022-10-31T12:28:23.655Z,99407.81
2022-10-31T12:30:57.117Z,99398.19
2022-10-31T12:33:30.153Z,99405.94
2022-10-31T12:36:10.964Z,99400.50
2022-10-31T12:38:50.964Z,99391.91
2022-10-31T12:41:24.424Z,99382.16
2022-10-31T12:43:55.486Z,99372.91
2022-10-31T12:46:27.761Z,99367.94
2022-10-31T12:49:13.649Z,99369.81
2022-10-31T12:51:45.723Z,99364.81
2022-10-31T12:54:22.770Z,99365.13
2022-10-31T12:56:56.609Z,99362.97
2022-10-31T12:59:29.598Z,99358.81
2022-10-31T13:02:04.476Z,99354.78
2022-10-31T13:04:37.396Z,99340.59
2022-10-31T13:07:08.707Z,99336.56
2022-10-31T13:09:39.309Z,99339.41
2022-10-31T13:12:10.657Z,99338.41
2022-10-31T13:14:40.071Z,99333.69
2022-10-31T13:17:08.627Z,99335.78
2022-10-31T13:19:38.794Z,99340.63
2022-10-31T13:22:08.635Z,99333.34
2022-10-31T13:24:38.286Z,99321.06
2022-10-31T13:27:15.053Z,99316.13
2022-10-31T13:29:46.175Z,99321.06
2022-10-31T13:32:13.917Z,99309.47
2022-10-31T13:34:44.255Z,99308.84
2022-10-31T13:37:17.242Z,99311.41
2022-10-31T13:39:51.212Z,99302.50
2022-10-31T13:42:24.266Z,99298.16
2022-10-31T13:44:58.815Z,99285.38
2022-10-31T13:47:46.763Z,99278.69
2022-10-31T13:50:28.854Z,99280.50
2022-10-31T13:53:20.712Z,99276.78
2022-10-31T13:56:11.848Z,99265.81
2022-10-31T13:59:08.751Z,99260.66
2022-10-31T14:01:55.013Z,99260.06
2022-10-31T14:04:45.837Z,99257.63
2022-10-31T14:07:35.701Z,99263.44
2022-10-31T14:10:37.471Z,99255.47
2022-10-31T14:13:48.712Z,99252.88
2022-10-31T14:16:56.245Z,99250.19
2022-10-31T14:20:24.745Z,99239.84
2022-10-31T14:23:54.189Z,99237.09
2022-10-31T14:26:40.867Z,99244.56
2022-10-31T14:29:33.702Z,99241.75
2022-10-31T14:32:30.847Z,99236.94
2022-10-31T14:35:51.221Z,99231.38
2022-10-31T14:38:53.733Z,99229.41
2022-10-31T14:41:41.719Z,99223.50
2022-10-31T14:44:39.718Z,99232.97
2022-10-31T14:47:33.764Z,99229.75
2022-10-31T14:50:32.790Z,99214.78
2022-10-31T14:53:23.722Z,99212.19
2022-10-31T14:56:02.826Z,99211.41
2022-10-31T14:58:37.356Z,99210.84
2022-10-31T15:01:05.856Z,99208.19
2022-10-31T15:03:36.119Z,99206.81
2022-10-31T15:06:05.341Z,99201.31
2022-10-31T15:08:35.107Z,99205.63
2022-10-31T15:11:12.323Z,99205.63
2022-10-31T15:13:43.602Z,99195.84
2022-10-31T15:16:12.795Z,99196.03
2022-10-31T15:18:48.523Z,99196.22
2022-10-31T15:21:17.023Z,99187.72
2022-10-31T15:23:45.101Z,99189.41
2022-10-31T15:26:17.835Z,99191.88
2022-10-31T15:28:45.591Z,99202.44
2022-10-31T15:31:17.482Z,99189.22
2022-10-31T15:33:48.675Z,99190.09
2022-10-31T15:36:23.959Z,99190.34
2022-10-31T15:38:57.572Z,99182.38
2022-10-31T15:41:28.897Z,99187.09
2022-10-31T15:43:57.297Z,99181.25
2022-10-31T15:46:25.075Z,99173.63
2022-10-31T15:48:54.148Z,99168.13
2022-10-31T15:51:27.563Z,99173.34
2022-10-31T15:53:56.279Z,99171.03
2022-10-31T15:56:25.230Z,99189.44
2022-10-31T15:58:54.428Z,99182.81
2022-10-31T16:01:23.576Z,99191.38
2022-10-31T16:04:12.426Z,99184.69
2022-10-31T16:06:41.525Z,99199.56
2022-10-31T16:09:23.145Z,99185.06
2022-10-31T16:11:50.909Z,99178.69
2022-10-31T16:14:25.295Z,99173.63
2022-10-31T16:16:54.807Z,99184.41
2022-10-31T16:19:23.940Z,99193.81
2022-10-31T16:21:56.079Z,99185.94
2022-10-31T16:24:26.895Z,99175.94
2022-10-31T16:26:55.799Z,99167.88
2022-10-31T16:29:27.806Z,99149.94
2022-10-31T16:31:55.450Z,99160.59
2022-10-31T16:34:26.950Z,99168.44
2022-10-31T16:36:56.225Z,99171.03
2022-10-31T16:39:23.836Z,99180.94
2022-10-31T16:41:52.881Z,99175.44
2022-10-31T16:44:23.238Z,99165.84
2022-10-31T16:47:08.941Z,99179.03
2022-10-31T16:49:36.563Z,99182.81
2022-10-31T16:52:05.754Z,99169.81
2022-10-31T16:54:33.404Z,99179.34
2022-10-31T16:57:01.780Z,99180.78
2022-10-31T16:59:29.464Z,99178.63
2022-10-31T17:01:57.645Z,99181.66
2022-10-31T17:04:25.676Z,99193.25
2022-10-31T17:06:53.366Z,99193.69
2022-10-31T17:09:22.459Z,99204.28
2022-10-31T17:11:52.057Z,99198.84
2022-10-31T17:14:20.536Z,99193.50
2022-10-31T17:16:48.472Z,99188.44
2022-10-31T17:19:16.151Z,99179.78
2022-10-31T17:21:43.912Z,99173.97
2022-10-31T17:24:13.312Z,99173.84
2022-10-31T17:26:42.632Z,99182.81
2022-10-31T17:29:10.290Z,99191.75
2022-10-31T17:31:39.340Z,99179.53
2022-10-31T17:34:07.379Z,99176.63
2022-10-31T17:36:35.724Z,99170.44
2022-10-31T17:39:05.571Z,99178.06
2022-10-31T17:41:33.261Z,99190.03
2022-10-31T17:44:02.269Z,99181.94
2022-10-31T17:48:49.949Z,99177.88
2022-10-31T17:51:17.918Z,99182.94
2022-10-31T17:53:45.541Z,99191.44
2022-10-31T17:56:13.207Z,99176.41
2022-10-31T17:58:41.379Z,99169.72
2022-10-31T18:01:10.432Z,99156.09
2022-10-31T18:03:38.702Z,99153.22
2022-10-31T18:06:08.299Z,99146.38
2022-10-31T18:08:36.629Z,99150.25
2022-10-31T18:11:09.162Z,99149.34
2022-10-31T18:13:37.103Z,99141.94
2022-10-31T18:16:08.210Z,99131.91
2022-10-31T18:18:35.857Z,99124.84
2022-10-31T18:21:03.456Z,99119.94
2022-10-31T18:23:32.438Z,99119.16
2022-10-31T18:26:00.083Z,99117.63
2022-10-31T18:28:27.781Z,99108.78
2022-10-31T18:30:56.043Z,99112.81
2022-10-31T18:33:23.692Z,99116.38
2022-10-31T18:35:51.302Z,99113.03
2022-10-31T18:38:19.155Z,99111.97
2022-10-31T18:40:48.147Z,99108.28
2022-10-31T18:43:15.804Z,99106.88
2022-10-31T18:45:48.055Z,99107.94
2022-10-31T18:48:17.432Z,99100.84
2022-10-31T18:50:45.489Z,99107.88
2022-10-31T18:53:13.135Z,99108.53
2022-10-31T18:55:44.140Z,99109.91
2022-10-31T18:58:18.190Z,99122.84
2022-10-31T19:00:46.464Z,99125.63
2022-10-31T19:03:14.284Z,99113.41
2022-10-31T19:05:42.071Z,99103.56
2022-10-31T19:08:09.720Z,99088.91
2022-10-31T19:10:37.630Z,99087.47
2022-10-31T19:13:05.798Z,99092.97
2022-10-31T19:15:36.504Z,99094.09
2022-10-31T19:18:04.487Z,99096.28
2022-10-31T19:20:32.385Z,99105.56
2022-10-31T19:23:00.334Z,99100.81
2022-10-31T19:25:28.278Z,99093.91
2022-10-31T19:27:55.873Z,99087.19
2022-10-31T19:30:23.517Z,99089.91
2022-10-31T19:32:56.147Z,99088.50
2022-10-31T19:35:24.047Z,99090.16
2022-10-31T19:37:51.634Z,99088.81
2022-10-31T19:40:19.669Z,99092.31
2022-10-31T19:42:47.350Z,99091.59
2022-10-31T19:45:15.004Z,99095.09
2022-10-31T19:47:42.636Z,99093.75
2022-10-31T19:50:11.938Z,99096.47
2022-10-31T19:52:39.754Z,99088.34
2022-10-31T19:55:07.733Z,99080.69
2022-10-31T19:58:00.277Z,99081.53
2022-10-31T20:00:24.504Z,99081.06
2022-10-31T20:02:52.164Z,99070.25
2022-10-31T20:05:21.223Z,99062.03
2022-10-31T20:07:48.846Z,99062.22
2022-10-31T20:10:16.713Z,99051.53
2022-10-31T20:12:44.486Z,99053.09
2022-10-31T20:15:12.114Z,99048.03
2022-10-31T20:17:39.764Z,99051.69
2022-10-31T20:20:09.001Z,99046.97
2022-10-31T20:22:38.488Z,99040.19
2022-10-31T20:25:06.565Z,99034.31
2022-10-31T20:27:34.215Z,99026.59
2022-10-31T20:30:01.895Z,99015.88
2022-10-31T20:32:29.589Z,99015.38
2022-10-31T20:34:57.595Z,99020.59
2022-10-31T20:37:25.531Z,99017.16
2022-10-31T20:39:56.571Z,99016.91
2022-10-31T20:42:24.568Z,99017.53
2022-10-31T20:44:52.187Z,99022.28
2022-10-31T20:47:23.337Z,99011.69
2022-10-31T20:49:52.757Z,99013.78
2022-10-31T20:52:20.341Z,99018.25
2022-10-31T20:54:47.996Z,99034.78
2022-10-31T20:57:16.967Z,99049.41
2022-10-31T20:59:44.645Z,99054.13
2022-10-31T21:02:12.432Z,99035.59
2022-10-31T21:04:40.511Z,99029.19
2022-10-31T21:07:08.223Z,99053.88
2022-10-31T21:09:35.865Z,99084.13
2022-10-31T21:12:03.534Z,99097.66
2022-10-31T21:14:32.711Z,99085.28
2022-10-31T21:17:00.689Z,99058.88
2022-10-31T21:19:28.284Z,99073.41
2022-10-31T21:21:56.008Z,99092.72
2022-10-31T21:24:23.593Z,99066.09
2022-10-31T21:26:52.627Z,99069.69
2022-10-31T21:29:20.743Z,99072.81
2022-10-31T21:31:49.786Z,99060.75
2022-10-31T21:34:17.694Z,99079.53
2022-10-31T21:36:45.310Z,99063.84
2022-10-31T21:39:12.967Z,99051.84
2022-10-31T21:41:40.609Z,99042.13
2022-10-31T21:44:08.309Z,99061.19
2022-10-31T21:46:38.134Z,99057.47
2022-10-31T21:49:07.242Z,99062.22
2022-10-31T21:51:36.144Z,99087.28
2022-10-31T21:54:21.169Z,99105.63
2022-10-31T21:56:48.867Z,99088.06
2022-10-31T21:59:16.534Z,99081.53
2022-10-31T22:01:44.337Z,99083.81
2022-10-31T22:04:13.386Z,99079.25
2022-10-31T22:06:41.039Z,99078.59
2022-10-31T22:09:09.682Z,99081.19
2022-10-31T22:11:37.491Z,99078.97
2022-10-31T22:14:05.481Z,99087.06
2022-10-31T22:16:34.815Z,99095.53
2022-10-31T22:19:05.403Z,99100.06
2022-10-31T22:21:36.987Z,99094.69
2022-10-31T22:24:07.580Z,99083.81
2022-10-31T22:26:35.778Z,99090.03
2022-10-31T22:29:05.128Z,99076.41
2022-10-31T22:31:33.383Z,99084.44
2022-10-31T22:34:01.459Z,99082.66
2022-10-31T22:36:29.955Z,99077.66
2022-10-31T22:38:59.020Z,99078.69
2022-10-31T22:41:27.747Z,99079.72
2022-10-31T22:43:55.393Z,99085.59
2022-10-31T22:46:24.407Z,99090.13
2022-10-31T22:48:52.942Z,99094.03
2022-10-31T22:51:21.400Z,99090.25
2022-10-31T22:53:49.047Z,99090.22
2022-10-31T22:56:19.261Z,99085.94
2022-10-31T22:58:46.953Z,99077.19
2022-10-31T23:01:16.146Z,99071.50
2022-10-31T23:03:44.163Z,99076.13
2022-10-31T23:06:12.939Z,99057.13
2022-10-31T23:08:40.873Z,99065.22
2022-10-31T23:11:15.687Z,99065.31
2022-10-31T23:14:02.817Z,99063.09
2022-10-31T23:16:30.392Z,99063.53
2022-10-31T23:18:58.168Z,99065.13
2022-10-31T23:21:44.061Z,99066.44
2022-10-31T23:24:12.566Z,99065.50
2022-10-31T23:26:58.350Z,99060.81
2022-10-31T23:29:27.535Z,99066.44
2022-10-31T23:31:55.556Z,99065.56
2022-10-31T23:34:23.578Z,99070.59
2022-10-31T23:36:51.431Z,99087.31
2022-10-31T23:39:22.701Z,99088.94
2022-10-31T23:41:53.322Z,99086.84
2022-10-31T23:44:21.315Z,99083.94
2022-10-31T23:46:50.392Z,99081.72
2022-10-31T23:49:18.396Z,99088.59
2022-10-31T23:51:46.076Z,99100.63
2022-10-31T23:54:13.794Z,99098.53
2022-10-31T23:56:41.471Z,99093.69
2022-10-31T23:59:09.119Z,99083.81
